Terminal Aerodrome Forecast
Issued by NWS

Home | Current Version | Previous Version | Text Only | Print | Product List | Glossary On
Versions: 1 2 3 4 5 6 7 8 9 10 11 12 13 14 15 16 17 18 19 20 21 22 23 24 25 26 27 28 29 30 31 32 33 34 35 36 37 38 39
000
FTAK31 PANC 240329 AAA
TAFADU
TAF AMD
PADU 240329Z 2403/2424 25016G24KT P6SM -SHSN OVC035
      TEMPO 2403/2406 3SM -SHSN BKN012 BKN025
     FM240600 26020G28KT P6SM -SHSNRA SCT022 BKN040
     FM241600 25014G22KT P6SM -SHSNRA SCT025 BKN040=

USA.gov is the U.S. government's official web portal to all federal, state and local government web resources and services.